Terminal Aerodrome Forecast
Issued by NWS Brownsville, TX

Home | Current Version | Previous Version | Text Only | Print | Product List | Glossary On
Versions: 1 2 3 4 5 6 7 8 9 10 11 12 13 14 15 16 17
000
FTUS44 KBRO 011934 AAA
TAFHRL
TAF AMD
KHRL 011934Z 0120/0218 09010G18KT P6SM FEW025 BKN050
      TEMPO 0120/0122 -TSRA BKN025CB
     FM012300 11015G22KT P6SM BKN050
     FM020300 11010KT P6SM SCT030
     FM021500 16010KT P6SM SCT030=

USA.gov is the U.S. government's official web portal to all federal, state and local government web resources and services.